sensor_id;sensor_type;location;lat;lon;timestamp;temperature;humidity
21612;DHT22;47005;52.292;13.452;2023-04-01T00:00:20;10.70;99.90
21612;DHT22;47005;52.292;13.452;2023-04-01T00:02:46;10.70;99.90
21612;DHT22;47005;52.292;13.452;2023-04-01T00:05:12;10.70;99.90
21612;DHT22;47005;52.292;13.452;2023-04-01T00:07:39;10.80;99.90
21612;DHT22;47005;52.292;13.452;2023-04-01T00:10:07;10.70;99.90
21612;DHT22;47005;52.292;13.452;2023-04-01T00:12:33;10.80;99.90
21612;DHT22;47005;52.292;13.452;2023-04-01T00:14:58;10.70;99.90
21612;DHT22;47005;52.292;13.452;2023-04-01T00:17:24;10.70;99.90
21612;DHT22;47005;52.292;13.452;2023-04-01T00:19:50;10.70;99.90
21612;DHT22;47005;52.292;13.452;2023-04-01T00:22:16;10.70;99.90
21612;DHT22;47005;52.292;13.452;2023-04-01T00:24:42;10.70;99.90
21612;DHT22;47005;52.292;13.452;2023-04-01T00:27:07;10.70;99.90
21612;DHT22;47005;52.292;13.452;2023-04-01T00:29:34;10.70;99.90
21612;DHT22;47005;52.292;13.452;2023-04-01T00:32:00;10.70;99.90
21612;DHT22;47005;52.292;13.452;2023-04-01T00:34:26;10.70;99.90
21612;DHT22;47005;52.292;13.452;2023-04-01T00:36:52;10.70;99.90
21612;DHT22;47005;52.292;13.452;2023-04-01T00:39:21;10.70;99.90
21612;DHT22;47005;52.292;13.452;2023-04-01T00:41:47;10.70;99.90
21612;DHT22;47005;52.292;13.452;2023-04-01T00:44:22;10.70;99.90
21612;DHT22;47005;52.292;13.452;2023-04-01T00:46:49;10.70;99.90
21612;DHT22;47005;52.292;13.452;2023-04-01T00:49:17;10.70;99.90
21612;DHT22;47005;52.292;13.452;2023-04-01T00:51:45;10.70;99.90
21612;DHT22;47005;52.292;13.452;2023-04-01T00:54:14;10.70;99.90
21612;DHT22;47005;52.292;13.452;2023-04-01T00:56:50;10.70;99.90
21612;DHT22;47005;52.292;13.452;2023-04-01T00:59:24;10.70;99.90
21612;DHT22;47005;52.292;13.452;2023-04-01T01:01:50;10.70;99.90
21612;DHT22;47005;52.292;13.452;2023-04-01T01:04:27;10.70;99.90
21612;DHT22;47005;52.292;13.452;2023-04-01T01:10:02;10.70;99.90
21612;DHT22;47005;52.292;13.452;2023-04-01T01:12:50;10.70;99.90
21612;DHT22;47005;52.292;13.452;2023-04-01T01:15:32;10.70;99.90
21612;DHT22;47005;52.292;13.452;2023-04-01T01:29:55;10.70;99.90
21612;DHT22;47005;52.292;13.452;2023-04-01T01:37:43;10.80;99.90
21612;DHT22;47005;52.292;13.452;2023-04-01T01:40:12;10.80;99.90
21612;DHT22;47005;52.292;13.452;2023-04-01T01:42:40;10.80;99.90
21612;DHT22;47005;52.292;13.452;2023-04-01T01:45:08;10.80;99.90
21612;DHT22;47005;52.292;13.452;2023-04-01T01:47:35;10.80;99.90
21612;DHT22;47005;52.292;13.452;2023-04-01T01:50:02;10.80;99.90
21612;DHT22;47005;52.292;13.452;2023-04-01T01:52:29;10.80;99.90
21612;DHT22;47005;52.292;13.452;2023-04-01T01:54:57;10.80;99.90
21612;DHT22;47005;52.292;13.452;2023-04-01T01:57:28;10.80;99.90
21612;DHT22;47005;52.292;13.452;2023-04-01T01:59:59;10.80;99.90
21612;DHT22;47005;52.292;13.452;2023-04-01T02:02:27;10.80;99.90
21612;DHT22;47005;52.292;13.452;2023-04-01T02:04:57;10.80;99.90
21612;DHT22;47005;52.292;13.452;2023-04-01T02:07:30;10.80;99.90
21612;DHT22;47005;52.292;13.452;2023-04-01T02:09:57;10.70;99.90
21612;DHT22;47005;52.292;13.452;2023-04-01T02:12:24;10.70;99.90
21612;DHT22;47005;52.292;13.452;2023-04-01T02:17:32;10.80;99.90
21612;DHT22;47005;52.292;13.452;2023-04-01T02:20:00;10.70;99.90
21612;DHT22;47005;52.292;13.452;2023-04-01T02:22:29;10.80;99.90
21612;DHT22;47005;52.292;13.452;2023-04-01T02:25:08;10.80;99.90
21612;DHT22;47005;52.292;13.452;2023-04-01T02:27:35;10.80;99.90
21612;DHT22;47005;52.292;13.452;2023-04-01T02:30:01;10.70;99.90
21612;DHT22;47005;52.292;13.452;2023-04-01T02:32:28;10.70;99.90
21612;DHT22;47005;52.292;13.452;2023-04-01T02:34:55;10.70;99.90
21612;DHT22;47005;52.292;13.452;2023-04-01T02:37:21;10.70;99.90
21612;DHT22;47005;52.292;13.452;2023-04-01T02:39:47;10.70;99.90
21612;DHT22;47005;52.292;13.452;2023-04-01T02:42:13;10.70;99.90
21612;DHT22;47005;52.292;13.452;2023-04-01T02:44:39;10.70;99.90
21612;DHT22;47005;52.292;13.452;2023-04-01T02:47:05;10.70;99.90
21612;DHT22;47005;52.292;13.452;2023-04-01T02:49:31;10.70;99.90
21612;DHT22;47005;52.292;13.452;2023-04-01T02:51:56;10.70;99.90
21612;DHT22;47005;52.292;13.452;2023-04-01T02:54:22;10.70;99.90
21612;DHT22;47005;52.292;13.452;2023-04-01T02:56:48;10.70;99.90
21612;DHT22;47005;52.292;13.452;2023-04-01T02:59:13;10.70;99.90
21612;DHT22;47005;52.292;13.452;2023-04-01T03:01:39;10.70;99.90
21612;DHT22;47005;52.292;13.452;2023-04-01T03:04:05;10.70;99.90
21612;DHT22;47005;52.292;13.452;2023-04-01T03:06:31;10.70;99.90
21612;DHT22;47005;52.292;13.452;2023-04-01T03:08:56;10.70;99.90
21612;DHT22;47005;52.292;13.452;2023-04-01T03:11:22;10.70;99.90
21612;DHT22;47005;52.292;13.452;2023-04-01T03:13:48;10.70;99.90
21612;DHT22;47005;52.292;13.452;2023-04-01T03:16:14;10.70;99.90
21612;DHT22;47005;52.292;13.452;2023-04-01T03:18:40;10.70;99.90
21612;DHT22;47005;52.292;13.452;2023-04-01T03:21:38;10.70;99.90
21612;DHT22;47005;52.292;13.452;2023-04-01T03:24:04;10.70;99.90
21612;DHT22;47005;52.292;13.452;2023-04-01T03:26:29;10.60;99.90
21612;DHT22;47005;52.292;13.452;2023-04-01T03:28:56;10.70;99.90
21612;DHT22;47005;52.292;13.452;2023-04-01T03:31:22;10.70;99.90
21612;DHT22;47005;52.292;13.452;2023-04-01T03:33:48;10.70;99.90
21612;DHT22;47005;52.292;13.452;2023-04-01T03:36:14;10.70;99.90
21612;DHT22;47005;52.292;13.452;2023-04-01T03:38:40;10.60;99.90
21612;DHT22;47005;52.292;13.452;2023-04-01T03:41:06;10.70;99.90
21612;DHT22;47005;52.292;13.452;2023-04-01T03:43:32;10.70;99.90
21612;DHT22;47005;52.292;13.452;2023-04-01T03:45:58;10.70;99.90
21612;DHT22;47005;52.292;13.452;2023-04-01T03:48:23;10.70;99.90
21612;DHT22;47005;52.292;13.452;2023-04-01T03:50:50;10.60;99.90
21612;DHT22;47005;52.292;13.452;2023-04-01T03:53:16;10.60;99.90
21612;DHT22;47005;52.292;13.452;2023-04-01T03:55:42;10.60;99.90
21612;DHT22;47005;52.292;13.452;2023-04-01T03:58:08;10.60;99.90
21612;DHT22;47005;52.292;13.452;2023-04-01T04:00:34;10.60;99.90
21612;DHT22;47005;52.292;13.452;2023-04-01T04:03:00;10.70;99.90
21612;DHT22;47005;52.292;13.452;2023-04-01T04:05:26;10.70;99.90
21612;DHT22;47005;52.292;13.452;2023-04-01T04:07:53;10.70;99.90
21612;DHT22;47005;52.292;13.452;2023-04-01T04:10:19;10.70;99.90
21612;DHT22;47005;52.292;13.452;2023-04-01T04:12:45;10.70;99.90
21612;DHT22;47005;52.292;13.452;2023-04-01T04:15:11;10.70;99.90
21612;DHT22;47005;52.292;13.452;2023-04-01T04:17:37;10.70;99.90
21612;DHT22;47005;52.292;13.452;2023-04-01T04:20:04;10.70;99.90
21612;DHT22;47005;52.292;13.452;2023-04-01T04:22:30;10.60;99.90
21612;DHT22;47005;52.292;13.452;2023-04-01T04:24:55;10.70;99.90
21612;DHT22;47005;52.292;13.452;2023-04-01T04:27:21;10.60;99.90
21612;DHT22;47005;52.292;13.452;2023-04-01T04:29:46;10.70;99.90
21612;DHT22;47005;52.292;13.452;2023-04-01T04:32:12;10.70;99.90
21612;DHT22;47005;52.292;13.452;2023-04-01T04:34:38;10.60;99.90
21612;DHT22;47005;52.292;13.452;2023-04-01T04:37:04;10.60;99.90
21612;DHT22;47005;52.292;13.452;2023-04-01T04:39:29;10.60;99.90
21612;DHT22;47005;52.292;13.452;2023-04-01T04:41:55;10.60;99.90
21612;DHT22;47005;52.292;13.452;2023-04-01T04:44:21;10.60;99.90
21612;DHT22;47005;52.292;13.452;2023-04-01T04:46:46;10.60;99.90
21612;DHT22;47005;52.292;13.452;2023-04-01T04:49:13;10.60;99.90
21612;DHT22;47005;52.292;13.452;2023-04-01T04:51:38;10.60;99.90
21612;DHT22;47005;52.292;13.452;2023-04-01T04:54:05;10.70;99.90
21612;DHT22;47005;52.292;13.452;2023-04-01T04:56:32;10.60;99.90
21612;DHT22;47005;52.292;13.452;2023-04-01T04:58:58;10.70;99.90
21612;DHT22;47005;52.292;13.452;2023-04-01T05:01:25;10.60;99.90
21612;DHT22;47005;52.292;13.452;2023-04-01T05:03:51;10.60;99.90
21612;DHT22;47005;52.292;13.452;2023-04-01T05:06:17;10.60;99.90
21612;DHT22;47005;52.292;13.452;2023-04-01T05:08:44;10.70;99.90
21612;DHT22;47005;52.292;13.452;2023-04-01T05:11:13;10.70;99.90
21612;DHT22;47005;52.292;13.452;2023-04-01T05:13:39;10.70;99.90
21612;DHT22;47005;52.292;13.452;2023-04-01T05:16:12;10.70;99.90
21612;DHT22;47005;52.292;13.452;2023-04-01T05:18:37;10.70;99.90
21612;DHT22;47005;52.292;13.452;2023-04-01T05:21:04;10.70;99.90
21612;DHT22;47005;52.292;13.452;2023-04-01T05:23:31;10.70;99.90
21612;DHT22;47005;52.292;13.452;2023-04-01T05:25:58;10.70;99.90
21612;DHT22;47005;52.292;13.452;2023-04-01T05:28:23;10.70;99.90
21612;DHT22;47005;52.292;13.452;2023-04-01T05:30:49;10.70;99.90
21612;DHT22;47005;52.292;13.452;2023-04-01T05:33:15;10.70;99.90
21612;DHT22;47005;52.292;13.452;2023-04-01T05:35:41;10.70;99.90
21612;DHT22;47005;52.292;13.452;2023-04-01T05:38:07;10.80;99.90
21612;DHT22;47005;52.292;13.452;2023-04-01T05:40:32;10.80;99.90
21612;DHT22;47005;52.292;13.452;2023-04-01T05:42:58;10.80;99.90
21612;DHT22;47005;52.292;13.452;2023-04-01T05:45:24;10.80;99.90
21612;DHT22;47005;52.292;13.452;2023-04-01T05:47:50;10.80;99.90
21612;DHT22;47005;52.292;13.452;2023-04-01T05:50:16;10.80;99.90
21612;DHT22;47005;52.292;13.452;2023-04-01T05:52:41;10.80;99.90
21612;DHT22;47005;52.292;13.452;2023-04-01T05:55:08;10.80;99.90
21612;DHT22;47005;52.292;13.452;2023-04-01T05:57:33;10.80;99.90
21612;DHT22;47005;52.292;13.452;2023-04-01T05:59:59;10.80;99.90
21612;DHT22;47005;52.292;13.452;2023-04-01T06:02:25;10.80;99.90
21612;DHT22;47005;52.292;13.452;2023-04-01T06:05:29;10.80;99.90
21612;DHT22;47005;52.292;13.452;2023-04-01T06:07:50;10.80;99.90
21612;DHT22;47005;52.292;13.452;2023-04-01T06:10:20;10.80;99.90
21612;DHT22;47005;52.292;13.452;2023-04-01T06:13:06;10.90;99.90
21612;DHT22;47005;52.292;13.452;2023-04-01T06:15:57;10.90;99.90
21612;DHT22;47005;52.292;13.452;2023-04-01T06:29:50;11.00;99.90
21612;DHT22;47005;52.292;13.452;2023-04-01T06:40:48;11.10;99.90
21612;DHT22;47005;52.292;13.452;2023-04-01T06:43:47;11.10;99.90
21612;DHT22;47005;52.292;13.452;2023-04-01T06:46:23;11.10;99.90
21612;DHT22;47005;52.292;13.452;2023-04-01T06:52:04;11.20;99.90
21612;DHT22;47005;52.292;13.452;2023-04-01T06:54:40;11.20;99.90
21612;DHT22;47005;52.292;13.452;2023-04-01T06:59:49;11.20;99.90
21612;DHT22;47005;52.292;13.452;2023-04-01T07:02:19;11.30;99.90
21612;DHT22;47005;52.292;13.452;2023-04-01T07:04:49;11.30;99.90
21612;DHT22;47005;52.292;13.452;2023-04-01T07:07:37;11.30;99.90
21612;DHT22;47005;52.292;13.452;2023-04-01T07:10:17;11.30;99.90
21612;DHT22;47005;52.292;13.452;2023-04-01T07:12:51;11.30;99.90
21612;DHT22;47005;52.292;13.452;2023-04-01T07:15:33;11.40;99.90
21612;DHT22;47005;52.292;13.452;2023-04-01T07:18:21;11.40;99.90
21612;DHT22;47005;52.292;13.452;2023-04-01T07:20:50;11.40;99.90
21612;DHT22;47005;52.292;13.452;2023-04-01T07:23:23;11.50;99.90
21612;DHT22;47005;52.292;13.452;2023-04-01T07:26:00;11.50;99.90
21612;DHT22;47005;52.292;13.452;2023-04-01T07:28:31;11.50;99.90
21612;DHT22;47005;52.292;13.452;2023-04-01T07:31:07;11.60;99.90
21612;DHT22;47005;52.292;13.452;2023-04-01T07:33:43;11.70;99.90
21612;DHT22;47005;52.292;13.452;2023-04-01T07:36:37;11.70;99.90
21612;DHT22;47005;52.292;13.452;2023-04-01T07:39:23;11.80;99.90
21612;DHT22;47005;52.292;13.452;2023-04-01T07:47:29;11.90;99.90
21612;DHT22;47005;52.292;13.452;2023-04-01T07:50:22;12.00;99.90
21612;DHT22;47005;52.292;13.452;2023-04-01T07:52:57;12.00;99.90
21612;DHT22;47005;52.292;13.452;2023-04-01T08:03:43;11.90;99.90
21612;DHT22;47005;52.292;13.452;2023-04-01T08:16:28;11.90;99.90
21612;DHT22;47005;52.292;13.452;2023-04-01T08:21:42;11.90;99.90
21612;DHT22;47005;52.292;13.452;2023-04-01T08:27:06;11.90;99.90
21612;DHT22;47005;52.292;13.452;2023-04-01T08:29:40;11.90;99.90
21612;DHT22;47005;52.292;13.452;2023-04-01T08:32:15;12.00;99.90
21612;DHT22;47005;52.292;13.452;2023-04-01T08:34:46;12.00;99.90
21612;DHT22;47005;52.292;13.452;2023-04-01T08:37:17;12.10;99.90
21612;DHT22;47005;52.292;13.452;2023-04-01T08:40:11;12.10;99.90
21612;DHT22;47005;52.292;13.452;2023-04-01T08:56:21;12.30;99.90
21612;DHT22;47005;52.292;13.452;2023-04-01T09:31:08;12.60;99.90
21612;DHT22;47005;52.292;13.452;2023-04-01T09:39:03;12.60;99.90
21612;DHT22;47005;52.292;13.452;2023-04-01T09:42:05;12.70;99.90
21612;DHT22;47005;52.292;13.452;2023-04-01T09:47:51;12.70;99.90
21612;DHT22;47005;52.292;13.452;2023-04-01T09:50:51;12.80;99.90
21612;DHT22;47005;52.292;13.452;2023-04-01T09:53:23;12.80;99.90
21612;DHT22;47005;52.292;13.452;2023-04-01T10:19:14;12.80;99.90
21612;DHT22;47005;52.292;13.452;2023-04-01T10:39:11;12.90;99.90
21612;DHT22;47005;52.292;13.452;2023-04-01T10:47:49;13.00;99.90
21612;DHT22;47005;52.292;13.452;2023-04-01T10:56:55;12.90;99.90
21612;DHT22;47005;52.292;13.452;2023-04-01T11:46:23;12.70;99.90
21612;DHT22;47005;52.292;13.452;2023-04-01T11:57:41;12.80;99.90
21612;DHT22;47005;52.292;13.452;2023-04-01T12:05:53;12.90;99.90
21612;DHT22;47005;52.292;13.452;2023-04-01T12:08:44;12.80;99.90
21612;DHT22;47005;52.292;13.452;2023-04-01T12:17:44;12.80;99.90
21612;DHT22;47005;52.292;13.452;2023-04-01T12:20:33;12.80;99.90
21612;DHT22;47005;52.292;13.452;2023-04-01T12:30:53;12.70;99.90
21612;DHT22;47005;52.292;13.452;2023-04-01T12:43:05;12.50;99.90
21612;DHT22;47005;52.292;13.452;2023-04-01T12:45:59;12.50;99.90
21612;DHT22;47005;52.292;13.452;2023-04-01T12:57:06;12.20;99.90
21612;DHT22;47005;52.292;13.452;2023-04-01T13:08:20;12.10;99.90
21612;DHT22;47005;52.292;13.452;2023-04-01T13:11:13;12.10;99.90
21612;DHT22;47005;52.292;13.452;2023-04-01T13:16:30;12.10;99.90
21612;DHT22;47005;52.292;13.452;2023-04-01T13:22:13;12.00;99.90
21612;DHT22;47005;52.292;13.452;2023-04-01T13:25:00;12.00;99.90
21612;DHT22;47005;52.292;13.452;2023-04-01T13:27:41;12.00;99.90
21612;DHT22;47005;52.292;13.452;2023-04-01T13:33:04;12.00;99.90
21612;DHT22;47005;52.292;13.452;2023-04-01T13:41:13;12.00;99.90
21612;DHT22;47005;52.292;13.452;2023-04-01T13:46:52;11.90;99.90
21612;DHT22;47005;52.292;13.452;2023-04-01T13:54:36;11.80;99.90
21612;DHT22;47005;52.292;13.452;2023-04-01T14:03:12;11.80;99.90
21612;DHT22;47005;52.292;13.452;2023-04-01T14:05:54;11.70;99.90
21612;DHT22;47005;52.292;13.452;2023-04-01T14:11:17;11.70;99.90
21612;DHT22;47005;52.292;13.452;2023-04-01T14:22:06;11.50;99.90
21612;DHT22;47005;52.292;13.452;2023-04-01T14:32:55;11.30;99.90
21612;DHT22;47005;52.292;13.452;2023-04-01T14:41:40;11.30;99.90
21612;DHT22;47005;52.292;13.452;2023-04-01T14:52:33;11.20;99.90
21612;DHT22;47005;52.292;13.452;2023-04-01T14:55:15;11.10;99.90
21612;DHT22;47005;52.292;13.452;2023-04-01T14:57:58;11.10;99.90
21612;DHT22;47005;52.292;13.452;2023-04-01T15:00:24;11.10;99.90
21612;DHT22;47005;52.292;13.452;2023-04-01T15:03:13;11.00;99.90
21612;DHT22;47005;52.292;13.452;2023-04-01T15:06:00;11.00;99.90
21612;DHT22;47005;52.292;13.452;2023-04-01T15:08:56;11.00;99.90
21612;DHT22;47005;52.292;13.452;2023-04-01T15:11:55;11.00;99.90
21612;DHT22;47005;52.292;13.452;2023-04-01T15:17:05;11.00;99.90
21612;DHT22;47005;52.292;13.452;2023-04-01T15:31:03;10.90;99.90
21612;DHT22;47005;52.292;13.452;2023-04-01T15:33:52;10.90;99.90
21612;DHT22;47005;52.292;13.452;2023-04-01T15:36:43;10.80;99.90
21612;DHT22;47005;52.292;13.452;2023-04-01T15:42:09;10.80;99.90
21612;DHT22;47005;52.292;13.452;2023-04-01T15:49:56;10.70;99.90
21612;DHT22;47005;52.292;13.452;2023-04-01T16:00:29;10.60;99.90
21612;DHT22;47005;52.292;13.452;2023-04-01T16:11:22;10.40;99.90
21612;DHT22;47005;52.292;13.452;2023-04-01T16:16:51;10.40;99.90
21612;DHT22;47005;52.292;13.452;2023-04-01T16:22:35;10.40;99.90
21612;DHT22;47005;52.292;13.452;2023-04-01T16:28:16;10.30;99.90
21612;DHT22;47005;52.292;13.452;2023-04-01T16:31:09;10.30;99.90
21612;DHT22;47005;52.292;13.452;2023-04-01T16:39:01;10.20;99.90
21612;DHT22;47005;52.292;13.452;2023-04-01T16:41:36;10.20;99.90
21612;DHT22;47005;52.292;13.452;2023-04-01T16:47:08;10.10;99.90
21612;DHT22;47005;52.292;13.452;2023-04-01T16:49:51;10.10;99.90
21612;DHT22;47005;52.292;13.452;2023-04-01T16:52:32;10.10;99.90
21612;DHT22;47005;52.292;13.452;2023-04-01T17:04:47;10.00;99.90
21612;DHT22;47005;52.292;13.452;2023-04-01T17:15:59;9.90;99.90
21612;DHT22;47005;52.292;13.452;2023-04-01T17:21:18;9.80;99.90
21612;DHT22;47005;52.292;13.452;2023-04-01T17:24:06;9.80;99.90
21612;DHT22;47005;52.292;13.452;2023-04-01T17:26:45;9.80;99.90
21612;DHT22;47005;52.292;13.452;2023-04-01T17:32:09;9.70;99.90
21612;DHT22;47005;52.292;13.452;2023-04-01T17:41:14;9.60;99.90
21612;DHT22;47005;52.292;13.452;2023-04-01T17:45:58;9.60;99.90
21612;DHT22;47005;52.292;13.452;2023-04-01T17:51:24;9.60;99.90
21612;DHT22;47005;52.292;13.452;2023-04-01T18:01:58;9.40;99.90
21612;DHT22;47005;52.292;13.452;2023-04-01T18:18:57;9.20;99.90
21612;DHT22;47005;52.292;13.452;2023-04-01T18:21:49;9.30;99.90
21612;DHT22;47005;52.292;13.452;2023-04-01T18:24:22;9.20;99.90
21612;DHT22;47005;52.292;13.452;2023-04-01T18:27:03;9.20;99.90
21612;DHT22;47005;52.292;13.452;2023-04-01T18:29:47;9.10;99.90
21612;DHT22;47005;52.292;13.452;2023-04-01T18:32:47;9.10;99.90
21612;DHT22;47005;52.292;13.452;2023-04-01T18:38:11;9.00;99.90
21612;DHT22;47005;52.292;13.452;2023-04-01T18:40:48;9.10;99.90
21612;DHT22;47005;52.292;13.452;2023-04-01T18:45:57;9.00;99.90
21612;DHT22;47005;52.292;13.452;2023-04-01T18:51:03;9.00;99.90
21612;DHT22;47005;52.292;13.452;2023-04-01T18:56:13;8.90;99.90
21612;DHT22;47005;52.292;13.452;2023-04-01T19:04:10;8.80;99.90
21612;DHT22;47005;52.292;13.452;2023-04-01T19:06:52;8.80;99.90
21612;DHT22;47005;52.292;13.452;2023-04-01T19:09:52;8.70;99.90
21612;DHT22;47005;52.292;13.452;2023-04-01T19:21:04;8.60;99.90
21612;DHT22;47005;52.292;13.452;2023-04-01T19:26:35;8.60;99.90
21612;DHT22;47005;52.292;13.452;2023-04-01T19:29:46;8.50;99.90
21612;DHT22;47005;52.292;13.452;2023-04-01T19:37:10;8.50;99.90
21612;DHT22;47005;52.292;13.452;2023-04-01T19:43:00;8.40;99.90
21612;DHT22;47005;52.292;13.452;2023-04-01T19:45:52;8.40;99.90
21612;DHT22;47005;52.292;13.452;2023-04-01T19:48:38;8.30;99.90
21612;DHT22;47005;52.292;13.452;2023-04-01T19:59:33;8.20;99.90
21612;DHT22;47005;52.292;13.452;2023-04-01T20:04:49;8.20;99.90
21612;DHT22;47005;52.292;13.452;2023-04-01T20:07:31;8.20;99.90
21612;DHT22;47005;52.292;13.452;2023-04-01T20:10:16;8.20;99.90
21612;DHT22;47005;52.292;13.452;2023-04-01T20:15:47;8.10;99.90
21612;DHT22;47005;52.292;13.452;2023-04-01T20:20:57;8.10;99.90
21612;DHT22;47005;52.292;13.452;2023-04-01T20:26:01;8.10;99.90
21612;DHT22;47005;52.292;13.452;2023-04-01T20:31:24;8.00;99.90
21612;DHT22;47005;52.292;13.452;2023-04-01T20:37:06;8.00;99.90
21612;DHT22;47005;52.292;13.452;2023-04-01T21:07:25;7.60;99.90
21612;DHT22;47005;52.292;13.452;2023-04-01T21:18:53;7.50;99.90
21612;DHT22;47005;52.292;13.452;2023-04-01T21:21:26;7.50;99.90
21612;DHT22;47005;52.292;13.452;2023-04-01T21:44:08;7.40;99.90
21612;DHT22;47005;52.292;13.452;2023-04-01T21:52:31;7.30;99.90
21612;DHT22;47005;52.292;13.452;2023-04-01T22:06:34;7.20;99.90
21612;DHT22;47005;52.292;13.452;2023-04-01T22:12:09;7.10;99.90
21612;DHT22;47005;52.292;13.452;2023-04-01T22:17:45;7.10;99.90
21612;DHT22;47005;52.292;13.452;2023-04-01T22:25:29;7.10;99.90
21612;DHT22;47005;52.292;13.452;2023-04-01T22:28:07;7.10;99.90
21612;DHT22;47005;52.292;13.452;2023-04-01T22:30:39;7.10;99.90
21612;DHT22;47005;52.292;13.452;2023-04-01T22:36:02;7.00;99.90
21612;DHT22;47005;52.292;13.452;2023-04-01T22:43:59;6.90;99.90
21612;DHT22;47005;52.292;13.452;2023-04-01T22:49:22;6.80;99.90
21612;DHT22;47005;52.292;13.452;2023-04-01T22:52:04;6.80;99.90
21612;DHT22;47005;52.292;13.452;2023-04-01T22:54:43;6.80;99.90
21612;DHT22;47005;52.292;13.452;2023-04-01T22:57:28;6.80;99.90
21612;DHT22;47005;52.292;13.452;2023-04-01T23:02:37;6.80;99.90
21612;DHT22;47005;52.292;13.452;2023-04-01T23:05:05;6.80;99.90
21612;DHT22;47005;52.292;13.452;2023-04-01T23:10:27;6.70;99.90
21612;DHT22;47005;52.292;13.452;2023-04-01T23:12:58;6.70;99.90
21612;DHT22;47005;52.292;13.452;2023-04-01T23:15:24;6.70;99.90
21612;DHT22;47005;52.292;13.452;2023-04-01T23:28:27;6.60;99.90
21612;DHT22;47005;52.292;13.452;2023-04-01T23:30:55;6.60;99.90
21612;DHT22;47005;52.292;13.452;2023-04-01T23:33:29;6.60;99.90
21612;DHT22;47005;52.292;13.452;2023-04-01T23:36:13;6.50;99.90
21612;DHT22;47005;52.292;13.452;2023-04-01T23:38:41;6.60;99.90
21612;DHT22;47005;52.292;13.452;2023-04-01T23:41:16;6.60;99.90
21612;DHT22;47005;52.292;13.452;2023-04-01T23:43:43;6.60;99.90
21612;DHT22;47005;52.292;13.452;2023-04-01T23:46:11;6.50;99.90
21612;DHT22;47005;52.292;13.452;2023-04-01T23:48:43;6.50;99.90
21612;DHT22;47005;52.292;13.452;2023-04-01T23:51:35;6.50;99.90
21612;DHT22;47005;52.292;13.452;2023-04-01T23:56:41;6.50;99.90
21612;DHT22;47005;52.292;13.452;2023-04-01T23:59:49;6.40;99.90
